createdAt,value
2023-02-16T19:49:41.200Z,21.80
2023-02-16T19:52:08.540Z,24.85
2023-02-16T19:54:35.862Z,24.88
2023-02-16T19:57:04.036Z,25.25
2023-02-16T19:59:32.412Z,25.50
2023-02-16T20:01:59.564Z,25.08
2023-02-16T20:04:26.664Z,26.30
2023-02-16T20:06:54.766Z,27.02
2023-02-16T20:09:22.877Z,24.50
2023-02-16T20:11:50.589Z,24.95
2023-02-16T20:14:17.934Z,24.13
2023-02-16T20:16:44.995Z,23.98
2023-02-16T20:19:13.364Z,25.23
2023-02-16T20:21:44.457Z,23.75
2023-02-16T20:24:12.016Z,23.63
2023-02-16T20:26:42.367Z,24.13
2023-02-16T20:29:13.104Z,23.73
2023-02-16T20:31:46.965Z,24.23
2023-02-16T20:34:14.253Z,25.58
2023-02-16T20:36:41.364Z,23.35
2023-02-16T20:39:09.133Z,22.80
2023-02-16T20:41:36.591Z,22.02
2023-02-16T20:44:04.816Z,20.65
2023-02-16T20:46:32.763Z,20.33
2023-02-16T20:49:00.003Z,21.75
2023-02-16T20:51:27.177Z,21.10
2023-02-16T20:53:54.742Z,20.83
2023-02-16T20:56:24.783Z,19.40
2023-02-16T20:58:54.688Z,22.27
2023-02-16T21:01:24.694Z,23.20
2023-02-16T21:03:53.931Z,20.95
2023-02-16T21:06:21.807Z,19.23
2023-02-16T21:08:48.858Z,19.00
2023-02-16T21:11:16.513Z,18.05
2023-02-16T21:13:44.253Z,18.77
2023-02-16T21:16:12.308Z,20.33
2023-02-16T21:18:40.706Z,18.38
2023-02-16T21:21:10.013Z,18.25
2023-02-16T21:23:37.060Z,16.52
2023-02-16T21:26:06.121Z,19.05
2023-02-16T21:28:33.416Z,17.25
2023-02-16T21:31:10.071Z,17.67
2023-02-16T21:33:37.973Z,17.17
2023-02-16T21:36:09.817Z,17.60
2023-02-16T21:38:37.495Z,17.38
2023-02-16T21:41:26.035Z,18.60
2023-02-16T21:44:00.525Z,17.48
2023-02-16T21:46:33.139Z,16.55
2023-02-16T21:49:00.231Z,17.52
2023-02-16T21:51:30.884Z,18.77
2023-02-16T21:53:58.834Z,17.83
2023-02-16T21:56:25.841Z,18.58
2023-02-16T21:58:52.965Z,17.85
2023-02-16T22:01:22.669Z,17.60
2023-02-16T22:03:50.322Z,18.33
2023-02-16T22:06:17.434Z,16.85
2023-02-16T22:08:44.548Z,15.00
2023-02-16T22:11:13.390Z,15.65
2023-02-16T22:13:40.916Z,15.57
2023-02-16T22:16:17.897Z,15.30
2023-02-16T22:18:44.994Z,15.65
2023-02-16T22:21:12.628Z,13.80
2023-02-16T22:23:39.854Z,15.48
2023-02-16T22:26:07.976Z,14.85
2023-02-16T22:28:36.898Z,14.25
2023-02-16T22:31:08.667Z,13.75
2023-02-16T22:33:35.717Z,14.05
2023-02-16T22:36:09.352Z,14.25
2023-02-16T22:38:36.443Z,13.88
2023-02-16T22:41:06.995Z,12.70
2023-02-16T22:43:34.861Z,14.20
2023-02-16T22:46:12.264Z,13.18
2023-02-16T22:48:39.620Z,13.38
2023-02-16T22:51:09.314Z,13.65
2023-02-16T22:53:36.638Z,13.48
2023-02-16T22:56:10.742Z,13.23
2023-02-16T22:58:37.848Z,13.82
2023-02-16T23:01:12.234Z,12.75
2023-02-16T23:03:39.869Z,14.27
2023-02-16T23:06:14.584Z,12.48
2023-02-16T23:08:43.268Z,13.25
2023-02-16T23:11:10.677Z,13.80
2023-02-16T23:13:37.788Z,13.07
2023-02-16T23:16:11.763Z,12.73
2023-02-16T23:18:39.533Z,14.07
2023-02-16T23:21:27.779Z,12.68
2023-02-16T23:23:56.020Z,13.80
2023-02-16T23:26:27.372Z,14.13
2023-02-16T23:28:59.425Z,13.55
2023-02-16T23:31:27.153Z,13.85
2023-02-16T23:33:56.191Z,13.18
2023-02-16T23:36:23.200Z,14.38
2023-02-16T23:38:50.280Z,12.57
2023-02-16T23:41:17.417Z,14.55
2023-02-16T23:43:44.617Z,14.43
2023-02-16T23:46:11.874Z,14.35
2023-02-16T23:48:38.966Z,15.60
2023-02-16T23:51:06.148Z,15.20
2023-02-16T23:53:34.239Z,14.75
2023-02-16T23:56:07.702Z,15.15
2023-02-16T23:58:42.244Z,15.65
